Time;durP1;ratioP1;P1;durP2;ratioP2;P2;SDS_P1;SDS_P2;PMS_P1;PMS_P2;Temp;Humidity;BMP_temperature;BMP_pressure;BME280_temperature;BME280_humidity;BME280_pressure;Samples;Min_cycle;Max_cycle;Signal;HPM_P1;HPM_P2
2021/10/10 00:02:08;;;;;;;0.50;0.50;;;;;;;1.49;82.51;101456.31;5034472;28;20135;-69
2021/10/10 00:04:34;;;;;;;0.50;0.50;;;;;;;1.53;82.39;101451.78;5034508;28;20199;-66
2021/10/10 00:07:00;;;;;;;0.50;0.50;;;;;;;1.57;81.53;101454.31;5051691;28;20060;-68
2021/10/10 00:09:26;;;;;;;0.50;0.50;;;;;;;1.55;81.41;101455.28;5052246;28;20060;-67
2021/10/10 00:11:52;;;;;;;0.50;0.50;;;;;;;1.56;81.58;101449.88;5051558;28;20461;-71
2021/10/10 00:14:18;;;;;;;0.50;0.50;;;;;;;1.53;81.94;101452.63;5033532;28;20049;-67
2021/10/10 00:16:44;;;;;;;0.50;0.50;;;;;;;1.53;81.74;101452.63;5016940;28;20063;-65
2021/10/10 00:19:10;;;;;;;0.50;0.50;;;;;;;1.51;81.57;101458.97;5016960;28;20056;-68
2021/10/10 00:21:35;;;;;;;0.50;0.50;;;;;;;1.41;81.97;101448.56;5051087;28;20134;-66
2021/10/10 00:24:01;;;;;;;0.50;0.50;;;;;;;1.42;82.46;101452.09;5033327;28;20203;-67
2021/10/10 00:26:27;;;;;;;0.50;0.50;;;;;;;1.38;82.54;101458.47;5049855;28;20087;-67
2021/10/10 00:28:53;;;;;;;0.50;0.50;;;;;;;1.37;82.69;101456.72;5051638;28;20056;-67
2021/10/10 00:31:19;;;;;;;0.50;0.50;;;;;;;1.41;82.58;101458.38;5051234;28;20052;-66
2021/10/10 00:33:45;;;;;;;0.50;0.50;;;;;;;1.39;82.89;101449.53;5049615;28;20072;-65
2021/10/10 00:36:11;;;;;;;0.50;0.50;;;;;;;1.31;82.59;101446.25;5033063;28;20489;-68
2021/10/10 00:38:37;;;;;;;0.47;0.47;;;;;;;1.31;82.93;101456.91;5033148;28;20088;-70
2021/10/10 00:41:06;;;;;;;0.50;0.50;;;;;;;1.30;82.96;101456.03;5050781;28;20049;-66
2021/10/10 00:43:32;;;;;;;0.50;0.50;;;;;;;1.34;82.81;101456.81;5051043;28;20053;-66
2021/10/10 00:45:58;;;;;;;0.50;0.50;;;;;;;1.37;82.99;101462.06;5051408;28;20060;-66
2021/10/10 00:48:24;;;;;;;0.50;0.50;;;;;;;1.43;83.08;101456.53;5033169;28;20088;-66
2021/10/10 00:50:49;;;;;;;0.40;0.40;;;;;;;1.48;82.51;101454.59;5050923;28;20405;-69
2021/10/10 00:53:16;;;;;;;0.50;0.50;;;;;;;1.50;81.89;101452.75;5050553;28;20052;-66
2021/10/10 00:55:42;;;;;;;0.50;0.50;;;;;;;1.45;81.63;101449.34;5050576;28;20060;-67
2021/10/10 00:58:09;;;;;;;0.50;0.50;;;;;;;1.38;81.94;101451.34;5049769;28;20045;-67
2021/10/10 01:00:35;;;;;;;0.50;0.50;;;;;;;1.28;82.72;101451.66;5051340;28;20076;-69
2021/10/10 01:03:01;;;;;;;0.50;0.50;;;;;;;1.33;82.96;101439.09;5032550;28;20169;-67
2021/10/10 01:05:27;;;;;;;0.50;0.50;;;;;;;1.43;82.75;101451.22;5049589;28;20048;-68
2021/10/10 01:07:53;;;;;;;0.40;0.40;;;;;;;1.50;82.53;101457.19;5050826;28;20063;-67
2021/10/10 01:10:20;;;;;;;0.50;0.50;;;;;;;1.51;82.76;101453.63;5049393;28;20045;-66
2021/10/10 01:12:46;;;;;;;0.50;0.50;;;;;;;1.52;82.65;101450.03;5049078;28;20146;-70
2021/10/10 01:15:13;;;;;;;0.40;0.40;;;;;;;1.50;82.54;101455.44;5032640;28;20052;-67
2021/10/10 01:17:39;;;;;;;0.50;0.50;;;;;;;1.47;83.11;101458.19;5051383;28;20497;-66
2021/10/10 01:20:07;;;;;;;0.43;0.43;;;;;;;1.45;82.55;101444.03;5054947;28;20056;-67
2021/10/10 01:22:34;;;;;;;0.50;0.50;;;;;;;1.44;82.45;101451.16;5055092;28;20135;-66
2021/10/10 01:25:00;;;;;;;0.50;0.50;;;;;;;1.40;82.75;101451.31;5053521;28;20053;-67
2021/10/10 01:27:27;;;;;;;0.50;0.50;;;;;;;1.36;83.26;101449.66;5054396;28;20088;-67
2021/10/10 01:29:52;;;;;;;0.50;0.50;;;;;;;1.33;82.95;101452.41;5054339;28;20114;-66
2021/10/10 01:32:18;;;;;;;0.50;0.50;;;;;;;1.28;82.68;101449.91;5036542;28;20053;-67
2021/10/10 01:34:45;;;;;;;0.50;0.50;;;;;;;1.26;82.43;101448.19;5054370;28;20052;-66
2021/10/10 01:37:12;;;;;;;0.50;0.50;;;;;;;1.27;82.92;101448.13;5054268;28;20057;-70
2021/10/10 01:39:38;;;;;;;0.50;0.50;;;;;;;1.26;82.25;101450.88;5054279;28;20056;-68
2021/10/10 01:42:03;;;;;;;0.50;0.50;;;;;;;1.24;82.33;101453.56;5054331;28;20068;-67
2021/10/10 01:44:29;;;;;;;0.50;0.50;;;;;;;1.18;82.22;101451.97;5035958;28;20053;-67
2021/10/10 01:46:55;;;;;;;0.50;0.50;;;;;;;1.08;83.59;101452.28;5035868;28;20468;-65
2021/10/10 01:49:21;;;;;;;0.50;0.50;;;;;;;1.05;83.39;101455.91;5053937;28;20063;-66
2021/10/10 01:51:47;;;;;;;0.50;0.50;;;;;;;1.12;83.54;101457.47;5052980;28;20049;-67
2021/10/10 01:54:13;;;;;;;0.50;0.50;;;;;;;1.12;83.06;101457.47;5054328;28;20095;-65
2021/10/10 01:56:39;;;;;;;0.50;0.50;;;;;;;1.13;83.13;101459.25;5036380;28;20102;-67
2021/10/10 01:59:04;;;;;;;0.50;0.50;;;;;;;1.10;83.13;101454.00;5054558;28;20092;-66
2021/10/10 02:01:30;;;;;;;0.50;0.50;;;;;;;1.09;82.42;101460.22;5036266;28;20176;-70
2021/10/10 02:03:56;;;;;;;0.50;0.50;;;;;;;1.08;83.22;101458.50;5053872;28;20076;-68
2021/10/10 02:06:22;;;;;;;0.50;0.50;;;;;;;1.06;83.44;101457.69;5054015;28;20053;-66
2021/10/10 02:08:48;;;;;;;0.50;0.50;;;;;;;1.03;83.20;101460.44;5053966;28;20527;-66
2021/10/10 02:11:14;;;;;;;0.50;0.50;;;;;;;1.01;83.23;101451.59;5035863;28;20053;-65
2021/10/10 02:13:39;;;;;;;0.50;0.50;;;;;;;0.98;83.56;101451.69;5035623;28;20110;-68
2021/10/10 02:16:05;;;;;;;0.50;0.50;;;;;;;0.98;83.62;101453.47;5053389;28;20047;-66
2021/10/10 02:18:32;;;;;;;0.50;0.50;;;;;;;1.01;83.88;101459.59;5035823;28;20230;-66
2021/10/10 02:20:58;;;;;;;0.50;0.50;;;;;;;0.95;84.20;101454.44;5035871;28;20071;-65
2021/10/10 02:23:25;;;;;;;0.50;0.50;;;;;;;0.94;84.14;101461.56;5053940;28;20084;-68
2021/10/10 02:25:51;;;;;;;0.50;0.50;;;;;;;0.93;84.25;101451.84;5052669;28;20052;-66
2021/10/10 02:28:18;;;;;;;0.50;0.50;;;;;;;0.92;83.80;101452.75;5054183;28;20112;-71
2021/10/10 02:30:49;;;;;;;0.50;0.50;;;;;;;0.93;84.22;101451.84;5051892;28;20133;-66
2021/10/10 02:33:15;;;;;;;0.50;0.50;;;;;;;0.98;84.05;101457.00;5053658;28;20057;-71
2021/10/10 02:35:41;;;;;;;0.50;0.50;;;;;;;0.98;83.53;101454.34;5054928;28;20048;-66
2021/10/10 02:38:07;;;;;;;0.50;0.50;;;;;;;0.97;83.52;101457.94;5054256;28;20394;-66
2021/10/10 02:40:33;;;;;;;0.50;0.50;;;;;;;0.94;83.07;101453.56;5053952;28;20080;-66
2021/10/10 02:42:59;;;;;;;0.50;0.50;;;;;;;0.90;82.60;101456.38;5035711;28;20100;-66
2021/10/10 02:45:24;;;;;;;0.40;0.40;;;;;;;0.80;82.78;101449.56;5053079;28;20052;-68
2021/10/10 02:47:50;;;;;;;0.50;0.50;;;;;;;0.82;82.71;101450.41;5034932;28;20084;-65
2021/10/10 02:50:17;;;;;;;0.50;0.50;;;;;;;0.76;83.00;101447.91;5053088;28;20060;-66
2021/10/10 02:52:43;;;;;;;0.50;0.50;;;;;;;0.72;83.63;101453.31;5018009;28;20477;-67
2021/10/10 02:55:09;;;;;;;0.50;0.50;;;;;;;0.63;83.74;101458.94;5052589;28;20064;-66
2021/10/10 02:57:35;;;;;;;0.50;0.50;;;;;;;0.55;83.89;101458.28;5051412;28;20107;-66
2021/10/10 03:00:01;;;;;;;0.50;0.50;;;;;;;0.57;84.52;101458.22;5051155;28;20061;-70
2021/10/10 03:02:26;;;;;;;0.50;0.50;;;;;;;0.63;85.23;101458.94;5051312;28;20056;-68
2021/10/10 03:04:52;;;;;;;0.50;0.50;;;;;;;0.66;84.83;101453.53;5052651;28;20062;-67
2021/10/10 03:07:18;;;;;;;0.50;0.50;;;;;;;0.70;85.25;101449.00;5052513;28;20049;-65
2021/10/10 03:09:43;;;;;;;0.50;0.50;;;;;;;0.77;85.39;101439.91;5034431;28;20139;-66
2021/10/10 03:12:09;;;;;;;0.50;0.50;;;;;;;0.78;84.65;101446.09;5053007;28;20049;-71
2021/10/10 03:14:35;;;;;;;0.50;0.50;;;;;;;0.72;84.42;101440.03;5052795;28;20087;-66
2021/10/10 03:17:01;;;;;;;0.50;0.50;;;;;;;0.66;84.40;101442.88;5035427;28;20180;-68
2021/10/10 03:19:26;;;;;;;0.50;0.50;;;;;;;0.58;84.34;101450.19;5034737;28;20049;-69
2021/10/10 03:21:52;;;;;;;0.50;0.50;;;;;;;0.55;84.55;101446.75;5034189;28;20049;-66
2021/10/10 03:24:18;;;;;;;0.50;0.50;;;;;;;0.55;85.04;101449.41;5052382;28;20045;-67
2021/10/10 03:26:43;;;;;;;0.50;0.50;;;;;;;0.54;84.86;101435.22;5034331;28;20057;-65
2021/10/10 03:29:09;;;;;;;0.50;0.50;;;;;;;0.57;84.95;101440.47;5052575;28;20063;-66
2021/10/10 03:31:35;;;;;;;0.50;0.50;;;;;;;0.63;84.79;101439.44;5052479;28;20416;-66
2021/10/10 03:34:00;;;;;;;0.50;0.50;;;;;;;0.64;84.34;101439.38;5052758;28;20239;-70
2021/10/10 03:36:26;;;;;;;0.50;0.50;;;;;;;0.69;83.96;101434.78;5052429;28;20052;-71
2021/10/10 03:38:52;;;;;;;0.50;0.50;;;;;;;0.70;83.99;101433.88;5052551;28;20056;-65
2021/10/10 03:41:18;;;;;;;0.50;0.50;;;;;;;0.65;83.64;101426.94;5034474;28;20508;-67
2021/10/10 03:43:45;;;;;;;0.50;0.50;;;;;;;0.69;83.66;101434.78;5053765;28;20152;-67
2021/10/10 03:46:11;;;;;;;0.50;0.50;;;;;;;0.60;83.40;101421.75;5053419;28;20148;-67
2021/10/10 03:48:37;;;;;;;0.50;0.50;;;;;;;0.63;84.16;101431.44;5051910;28;20052;-67
2021/10/10 03:51:04;;;;;;;0.50;0.50;;;;;;;0.66;84.19;101432.22;5053566;28;20052;-70
2021/10/10 03:54:10;;;;;;;0.50;0.50;;;;;;;0.59;84.27;101424.47;5051742;28;20067;-69
2021/10/10 03:56:25;;;;;;;0.50;0.50;;;;;;;0.72;84.41;101436.50;5050014;28;20357;-68
2021/10/10 03:58:51;;;;;;;0.50;0.50;;;;;;;0.80;84.13;101438.91;5010198;28;20061;-72
2021/10/10 04:01:17;;;;;;;0.50;0.50;;;;;;;0.83;83.73;101433.50;5011919;28;20493;-65
2021/10/10 04:03:43;;;;;;;0.50;0.50;;;;;;;0.74;83.74;101416.03;5012579;28;20195;-70
2021/10/10 04:06:09;;;;;;;0.50;0.50;;;;;;;0.84;82.88;101429.94;5014062;28;20084;-68
2021/10/10 04:08:41;;;;;;;0.50;0.50;;;;;;;0.83;83.83;101433.50;5031236;28;20146;-68
2021/10/10 04:11:08;;;;;;;0.50;0.50;;;;;;;0.85;82.85;101427.25;5031243;28;20064;-70
2021/10/10 04:13:34;;;;;;;0.50;0.50;;;;;;;0.91;82.60;101431.50;5032715;28;20053;-70
2021/10/10 04:15:59;;;;;;;0.50;0.50;;;;;;;0.92;82.21;101433.25;4999824;28;20061;-67
2021/10/10 04:18:25;;;;;;;0.50;0.50;;;;;;;0.86;82.86;101420.13;5016221;28;20057;-70
2021/10/10 04:20:51;;;;;;;0.60;0.60;;;;;;;0.86;82.81;101433.44;5033833;28;20057;-69
2021/10/10 04:26:17;;;;;;;0.50;0.50;;;;;;;0.93;83.13;101427.88;5031042;28;20049;-67
2021/10/10 04:28:43;;;;;;;0.50;0.50;;;;;;;0.94;82.75;101428.75;5032988;28;20049;-67
2021/10/10 04:31:09;;;;;;;0.50;0.50;;;;;;;0.94;82.18;101432.28;5033060;28;20049;-67
2021/10/10 04:33:35;;;;;;;0.60;0.60;;;;;;;0.90;82.40;101429.75;5015218;28;20049;-68
2021/10/10 04:36:01;;;;;;;0.50;0.50;;;;;;;0.85;82.64;101426.38;5033108;28;20103;-68
2021/10/10 04:44:06;;;;;;;0.60;0.60;;;;;;;1.02;83.00;101426.72;5050819;28;20879;-70
2021/10/10 04:46:33;;;;;;;0.50;0.50;;;;;;;1.14;82.53;101422.81;5035351;28;20147;-68
2021/10/10 04:48:58;;;;;;;0.55;0.55;;;;;;;1.23;82.11;101432.31;5034668;28;20056;-69
2021/10/10 05:10:10;;;;;;;0.80;0.80;;;;;;;2.82;75.96;101442.84;5047861;28;20041;-70
2021/10/10 05:12:37;;;;;;;0.80;0.80;;;;;;;3.41;73.40;101441.44;5051405;28;20110;-66
2021/10/10 05:15:07;;;;;;;0.80;0.80;;;;;;;3.91;71.14;101442.00;5050210;28;20063;-69
2021/10/10 05:17:33;;;;;;;0.80;0.80;;;;;;;4.35;69.35;101449.94;5052252;28;20059;-70
2021/10/10 05:20:32;;;;;;;0.80;0.80;;;;;;;4.56;68.18;101440.09;5051838;28;20049;-67
2021/10/10 05:22:57;;;;;;;0.80;0.80;;;;;;;4.87;66.92;101450.28;5007917;28;20449;-69
2021/10/10 05:25:24;;;;;;;0.90;0.90;;;;;;;5.21;65.71;101438.00;5009688;28;20108;-68
2021/10/10 05:27:50;;;;;;;0.80;0.80;;;;;;;5.57;64.61;101436.22;4993578;28;20393;-70
2021/10/10 06:06:11;;;;;;;0.80;0.80;;;;;;;10.72;49.92;101464.03;5033676;28;20528;-67
2021/10/10 06:08:38;;;;;;;0.90;0.90;;;;;;;11.30;48.88;101460.75;5026252;28;20133;-69
2021/10/10 06:11:05;;;;;;;0.90;0.90;;;;;;;12.14;46.87;101460.88;5013379;28;20489;-68
2021/10/10 06:13:32;;;;;;;0.90;0.90;;;;;;;12.76;45.14;101453.31;5031674;28;20058;-71
2021/10/10 06:15:59;;;;;;;0.90;0.90;;;;;;;13.50;44.87;101450.13;5029700;28;20050;-71
2021/10/10 06:18:25;;;;;;;0.90;0.90;;;;;;;13.88;42.68;101456.94;5052166;28;20106;-68
2021/10/10 06:20:51;;;;;;;0.90;0.90;;;;;;;14.37;41.38;101453.66;5026081;28;20067;-79
2021/10/10 06:23:18;;;;;;;0.88;0.88;;;;;;;14.84;40.83;101450.56;5007037;28;20505;-73
2021/10/10 06:25:43;;;;;;;0.80;0.80;;;;;;;15.11;39.29;101453.56;5009707;28;20054;-70
2021/10/10 06:28:09;;;;;;;0.90;0.90;;;;;;;15.53;38.48;101447.97;5021045;28;20053;-73
2021/10/10 06:30:35;;;;;;;0.90;0.90;;;;;;;16.50;36.68;101453.56;5028444;28;20057;-71
2021/10/10 06:33:01;;;;;;;0.90;0.90;;;;;;;16.81;35.90;101442.44;5045936;28;20072;-71
2021/10/10 06:35:26;;;;;;;0.90;0.90;;;;;;;16.71;36.18;101449.78;5020785;28;20076;-73
2021/10/10 06:37:52;;;;;;;0.90;0.90;;;;;;;17.07;35.43;101440.78;5042424;28;20040;-71
2021/10/10 06:40:18;;;;;;;0.90;0.90;;;;;;;18.00;34.30;101444.34;5038736;28;20061;-71
2021/10/10 06:42:45;;;;;;;0.80;0.80;;;;;;;18.43;33.15;101434.47;5014308;28;20045;-74
2021/10/10 06:45:12;;;;;;;0.80;0.80;;;;;;;18.84;33.25;101442.16;5053834;28;20106;-70
2021/10/10 09:30:54;;;;;;;0.70;0.70;;;;;;;26.39;19.73;101380.53;5017578;28;20081;-77
2021/10/10 09:33:38;;;;;;;0.80;0.80;;;;;;;27.01;19.26;101382.00;5001043;28;20520;-70
2021/10/10 09:36:06;;;;;;;0.80;0.80;;;;;;;27.81;18.49;101381.72;5025510;28;20528;-73
2021/10/10 09:38:42;;;;;;;0.75;0.75;;;;;;;28.29;18.56;101383.97;5026055;28;20057;-74
2021/10/10 09:41:14;;;;;;;0.73;0.73;;;;;;;25.29;20.53;101378.97;5025652;28;20045;-73
2021/10/10 09:44:07;;;;;;;;;;;;;;;24.67;21.47;101378.78;5028429;28;20096;-73
2021/10/10 09:46:34;;;;;;;0.70;0.70;;;;;;;25.59;20.52;101380.38;4996791;28;19921;-72
2021/10/10 09:49:00;;;;;;;0.70;0.70;;;;;;;24.61;21.74;101378.72;5010925;28;20107;-74
2021/10/10 09:51:30;;;;;;;0.75;0.75;;;;;;;25.30;21.38;101381.53;5006708;28;20053;-72
2021/10/10 09:54:06;;;;;;;0.70;0.70;;;;;;;26.07;20.47;101365.59;5031406;28;20152;-73
2021/10/10 09:56:33;;;;;;;0.70;0.70;;;;;;;26.95;19.16;101357.91;5017083;28;20522;-71
2021/10/10 09:58:59;;;;;;;0.63;0.63;;;;;;;27.01;18.99;101368.09;5018215;28;20460;-71
2021/10/10 10:04:17;;;;;;;0.70;0.70;;;;;;;24.61;20.97;101370.44;5034616;28;20053;-73
2021/10/10 10:06:44;;;;;;;0.70;0.70;;;;;;;24.89;20.36;101356.59;5040392;28;20050;-72
2021/10/10 10:09:11;;;;;;;0.70;0.70;;;;;;;26.26;19.79;101362.00;5035577;28;20053;-74
2021/10/10 10:11:38;;;;;;;0.70;0.70;;;;;;;26.75;19.40;101357.06;5034866;28;20057;-72
2021/10/10 10:14:08;;;;;;;0.60;0.60;;;;;;;27.21;18.31;101362.53;5028325;28;20065;-75
2021/10/10 10:16:38;;;;;;;0.65;0.65;;;;;;;27.93;17.75;101360.47;5037209;28;20041;-73
2021/10/10 10:19:04;;;;;;;0.70;0.70;;;;;;;26.04;19.69;101352.19;5036993;28;20105;-72
2021/10/10 10:21:31;;;;;;;0.65;0.65;;;;;;;26.72;18.41;101351.94;5018652;28;20059;-70
2021/10/10 10:24:01;;;;;;;0.60;0.60;;;;;;;26.65;18.41;101347.25;5037325;28;20077;-71
2021/10/10 10:26:37;;;;;;;0.60;0.60;;;;;;;26.22;18.70;101344.09;5036212;28;20053;-72
2021/10/10 10:29:05;;;;;;;0.60;0.60;;;;;;;25.77;19.04;101343.75;5032429;28;20115;-70
2021/10/10 10:31:33;;;;;;;0.70;0.70;;;;;;;26.24;18.82;101347.47;5047947;28;20136;-76
2021/10/10 10:34:21;;;;;;;0.60;0.60;;;;;;;27.14;18.59;101340.34;5013701;28;20201;-71
2021/10/10 10:36:56;;;;;;;0.60;0.60;;;;;;;27.53;17.52;101335.66;5034694;28;20127;-70
2021/10/10 10:39:37;;;;;;;0.60;0.60;;;;;;;28.47;16.97;101344.25;5029159;28;20084;-70
2021/10/10 10:42:05;;;;;;;0.60;0.60;;;;;;;28.23;17.75;101345.91;5044807;28;20045;-70
2021/10/10 10:44:45;;;;;;;0.57;0.57;;;;;;;28.68;17.06;101341.03;5036602;28;20050;-73
2021/10/10 10:47:25;;;;;;;0.50;0.50;;;;;;;27.92;17.09;101347.66;5044091;28;20101;-70
2021/10/10 10:49:51;;;;;;;0.50;0.50;;;;;;;26.90;18.31;101343.81;5042886;28;20114;-70
2021/10/10 10:52:33;;;;;;;0.50;0.50;;;;;;;25.92;19.41;101332.53;5032437;28;20057;-71
2021/10/10 11:09:46;;;;;;;0.50;0.50;;;;;;;27.69;18.25;101327.91;5046238;28;20104;-70
2021/10/10 11:12:14;;;;;;;0.50;0.50;;;;;;;27.90;17.31;101324.81;5015331;28;20128;-70
2021/10/10 11:14:42;;;;;;;0.50;0.50;;;;;;;28.21;17.51;101323.06;5031934;28;20053;-70
2021/10/10 11:19:35;;;;;;;0.40;0.40;;;;;;;28.71;17.00;101300.78;5041286;28;20093;-71
2021/10/10 11:22:01;;;;;;;0.40;0.40;;;;;;;27.63;17.60;101322.13;5026417;28;20045;-73
2021/10/10 11:24:27;;;;;;;0.40;0.40;;;;;;;27.86;17.63;101306.84;5014890;28;20103;-72
2021/10/10 11:26:55;;;;;;;0.50;0.50;;;;;;;27.17;18.22;101302.97;5032499;28;20069;-70
2021/10/10 11:32:14;;;;;;;0.40;0.40;;;;;;;24.99;19.52;101308.13;5047893;28;20055;-71
2021/10/10 11:34:40;;;;;;;0.50;0.50;;;;;;;25.64;19.40;101300.28;5023826;28;20057;-72
2021/10/10 11:37:12;;;;;;;0.50;0.50;;;;;;;26.04;18.48;101305.91;5032159;28;20049;-70
2021/10/10 11:39:38;;;;;;;0.43;0.43;;;;;;;26.65;17.80;101302.88;5042547;28;20056;-70
2021/10/10 11:42:10;;;;;;;0.40;0.40;;;;;;;26.77;18.26;101299.44;5042017;28;20055;-71
2021/10/10 11:44:44;;;;;;;0.40;0.40;;;;;;;26.74;17.86;101294.34;5056280;28;20489;-71
2021/10/10 11:47:26;;;;;;;0.40;0.40;;;;;;;25.44;18.92;101299.38;5045948;28;20291;-70
2021/10/10 11:50:03;;;;;;;0.40;0.40;;;;;;;25.86;18.97;101286.28;5045748;28;20049;-75
2021/10/10 11:52:43;;;;;;;0.40;0.40;;;;;;;25.91;19.09;101294.78;5021177;28;20076;-75
2021/10/10 11:55:24;;;;;;;0.40;0.40;;;;;;;26.47;18.73;101291.59;5047440;28;20045;-76
2021/10/10 11:58:00;;;;;;;0.40;0.40;;;;;;;26.02;18.71;101296.94;5002152;28;20497;-75
2021/10/10 12:00:34;;;;;;;0.40;0.40;;;;;;;26.20;18.46;101290.75;5034371;28;20049;-75
2021/10/10 12:03:15;;;;;;;0.40;0.40;;;;;;;26.27;18.19;101296.28;5034576;28;20056;-75
2021/10/10 12:05:45;;;;;;;0.30;0.30;;;;;;;26.25;18.90;101284.56;5047537;28;20088;-75
2021/10/10 12:08:22;;;;;;;0.40;0.40;;;;;;;25.70;18.65;101285.56;5033269;28;20054;-75
2021/10/10 12:10:49;;;;;;;0.35;0.35;;;;;;;24.63;19.52;101280.69;5031268;28;20057;-75
2021/10/10 12:13:16;;;;;;;0.30;0.30;;;;;;;24.78;20.03;101273.09;5033250;28;20151;-75
2021/10/10 12:15:42;;;;;;;0.40;0.40;;;;;;;25.30;19.55;101281.00;5030707;28;20144;-78
2021/10/10 12:18:13;;;;;;;0.35;0.35;;;;;;;25.29;19.33;101279.31;5022549;28;20483;-77
2021/10/10 12:20:40;;;;;;;0.30;0.30;;;;;;;24.40;20.05;101269.91;5036879;28;20045;-80
2021/10/10 12:23:09;;;;;;;0.30;0.30;;;;;;;23.43;21.11;101266.88;5055263;28;20150;-79
2021/10/10 12:25:43;;;;;;;0.30;0.30;;;;;;;23.33;21.35;101273.59;5044436;28;20049;-77
2021/10/10 12:28:19;;;;;;;0.30;0.30;;;;;;;22.73;22.30;101260.91;5040041;28;20103;-77
2021/10/10 12:30:57;;;;;;;0.38;0.38;;;;;;;22.12;22.47;101257.41;5064254;28;20049;-79
2021/10/10 12:33:26;;;;;;;0.30;0.30;;;;;;;23.00;21.57;101264.91;5053441;28;20069;-78
2021/10/10 12:35:56;;;;;;;0.35;0.35;;;;;;;23.24;21.45;101257.31;5051407;28;20484;-78
2021/10/10 12:38:33;;;;;;;0.30;0.30;;;;;;;23.58;21.39;101259.38;5049478;28;20076;-78
2021/10/10 12:41:00;;;;;;;0.30;0.30;;;;;;;24.19;20.77;101251.44;5035124;28;20136;-75
2021/10/10 12:43:38;;;;;;;0.30;0.30;;;;;;;24.13;20.64;101246.72;5041175;28;20064;-78
2021/10/10 12:46:04;;;;;;;0.30;0.30;;;;;;;24.06;20.99;101254.97;5033826;28;20060;-77
2021/10/10 12:48:29;;;;;;;0.30;0.30;;;;;;;23.66;21.28;101244.56;5033425;28;20058;-78
2021/10/10 12:50:57;;;;;;;0.30;0.30;;;;;;;22.55;22.28;101246.66;5052466;28;20048;-78
2021/10/10 12:53:34;;;;;;;0.30;0.30;;;;;;;23.12;21.79;101234.91;5037251;28;20050;-78
2021/10/10 12:56:16;;;;;;;0.30;0.30;;;;;;;23.21;21.40;101242.00;5029927;28;20056;-77
2021/10/10 12:58:53;;;;;;;0.20;0.20;;;;;;;23.09;21.60;101238.06;5038381;28;20065;-75
2021/10/10 13:01:21;;;;;;;0.20;0.20;;;;;;;21.69;22.45;101237.88;5048777;28;20041;-77
2021/10/10 13:03:48;;;;;;;0.25;0.25;;;;;;;21.10;23.46;101229.34;5040144;28;20046;-76
2021/10/10 13:06:16;;;;;;;0.20;0.20;;;;;;;20.85;23.71;101234.97;5019209;28;20049;-77
2021/10/10 13:08:49;;;;;;;0.30;0.30;;;;;;;21.41;23.07;101223.81;5052677;28;20061;-77
2021/10/10 13:11:16;;;;;;;0.20;0.20;;;;;;;21.09;23.41;101227.63;5035997;28;20532;-78
2021/10/10 13:13:42;;;;;;;0.20;0.20;;;;;;;19.93;23.78;101220.81;5049139;28;20219;-77
2021/10/10 13:16:08;;;;;;;0.30;0.30;;;;;;;19.48;25.05;101227.66;5018421;28;20564;-77
2021/10/10 13:18:34;;;;;;;0.20;0.20;;;;;;;19.46;25.09;101224.25;5051926;28;20111;-79
2021/10/10 13:21:00;;;;;;;0.20;0.20;;;;;;;19.81;25.71;101224.94;5034913;28;20409;-77
2021/10/10 13:23:26;;;;;;;0.15;0.15;;;;;;;19.51;25.46;101229.22;5018261;28;20061;-77
2021/10/10 13:25:51;;;;;;;0.10;0.10;;;;;;;18.72;26.28;101231.47;5018456;28;20574;-77
2021/10/10 13:28:17;;;;;;;0.10;0.10;;;;;;;18.23;27.55;101231.19;5027999;28;20041;-78
2021/10/10 13:30:44;;;;;;;0.10;0.10;;;;;;;17.78;27.81;101220.47;5037194;28;20049;-79
2021/10/10 13:33:10;;;;;;;0.10;0.10;;;;;;;17.04;29.29;101222.50;5063182;28;20095;-77
2021/10/10 13:35:40;;;;;;;0.20;0.20;;;;;;;16.53;30.26;101223.06;5062439;28;20057;-77
2021/10/10 13:38:06;;;;;;;0.17;0.17;;;;;;;16.67;30.00;101219.81;5048244;28;20079;-77
2021/10/10 13:40:32;;;;;;;0.10;0.10;;;;;;;16.63;29.47;101219.25;5030625;28;20144;-72
2021/10/10 13:42:58;;;;;;;0.10;0.10;;;;;;;16.48;29.49;101218.03;5031115;28;20109;-73
2021/10/10 13:45:24;;;;;;;0.10;0.10;;;;;;;16.38;29.71;101219.94;5047263;28;20461;-73
2021/10/10 13:47:50;;;;;;;0.10;0.10;;;;;;;16.37;30.26;101219.09;5047707;28;20429;-73
2021/10/10 13:50:16;;;;;;;0.20;0.20;;;;;;;16.25;30.49;101219.44;5047896;28;20063;-74
2021/10/10 13:52:42;;;;;;;0.20;0.20;;;;;;;15.98;30.67;101215.66;5047487;28;20091;-74
2021/10/10 13:55:08;;;;;;;0.20;0.20;;;;;;;15.95;31.24;101215.97;5031253;28;20144;-73
2021/10/10 13:57:36;;;;;;;0.20;0.20;;;;;;;15.47;32.24;101224.16;5062635;28;20057;-74
2021/10/10 14:00:07;;;;;;;0.20;0.20;;;;;;;15.01;33.22;101223.88;5047937;28;20053;-74
2021/10/10 14:02:36;;;;;;;0.20;0.20;;;;;;;14.93;33.48;101221.00;5049297;28;20077;-74
2021/10/10 14:05:02;;;;;;;0.10;0.10;;;;;;;14.59;34.52;101224.09;5015201;28;20094;-73
2021/10/10 14:07:28;;;;;;;0.20;0.20;;;;;;;14.67;34.58;101215.22;5048973;28;20053;-74
2021/10/10 14:09:54;;;;;;;0.20;0.20;;;;;;;14.71;35.03;101214.78;5031627;28;20160;-77
2021/10/10 14:12:20;;;;;;;0.20;0.20;;;;;;;14.61;34.92;101216.63;5048488;28;20044;-79
2021/10/10 14:14:46;;;;;;;0.10;0.10;;;;;;;14.53;35.61;101208.28;5027745;28;20067;-81
2021/10/10 14:17:12;;;;;;;0.20;0.20;;;;;;;14.32;35.91;101210.19;5048903;28;20580;-80
2021/10/10 14:19:38;;;;;;;0.20;0.20;;;;;;;14.27;36.55;101213.31;5065135;28;20091;-79
2021/10/10 14:22:04;;;;;;;0.13;0.13;;;;;;;13.98;36.56;101207.75;5010517;28;20073;-79
2021/10/10 14:24:30;;;;;;;0.20;0.20;;;;;;;13.84;37.26;101213.53;5015466;28;20091;-80
2021/10/10 14:26:56;;;;;;;0.20;0.20;;;;;;;13.70;37.53;101212.88;5034455;28;20088;-80
2021/10/10 14:29:22;;;;;;;0.20;0.20;;;;;;;13.69;37.67;101197.56;5067573;28;20124;-81
2021/10/10 14:31:48;;;;;;;0.20;0.20;;;;;;;13.68;37.98;101209.44;5051808;28;20140;-78
2021/10/10 14:34:14;;;;;;;0.20;0.20;;;;;;;13.45;38.07;101200.53;5050683;28;20382;-78
2021/10/10 14:36:40;;;;;;;0.20;0.20;;;;;;;13.33;38.67;101195.31;5065765;28;20053;-79
2021/10/10 14:39:07;;;;;;;0.20;0.20;;;;;;;13.14;38.86;101196.84;5067822;28;20048;-78
2021/10/10 14:46:34;;;;;;;0.20;0.20;;;;;;;12.72;39.85;101191.31;5017684;28;20084;-76
2021/10/10 14:49:00;;;;;;;0.20;0.20;;;;;;;12.68;40.29;101187.09;5050388;28;20061;-76
2021/10/10 14:51:29;;;;;;;0.20;0.20;;;;;;;12.67;40.28;101190.81;5050880;28;20048;-77
2021/10/10 14:53:55;;;;;;;0.20;0.20;;;;;;;12.63;40.55;101185.78;5023616;28;20139;-76
2021/10/10 14:56:21;;;;;;;0.20;0.20;;;;;;;12.54;40.57;101187.38;5018090;28;20049;-76
2021/10/10 14:58:46;;;;;;;0.30;0.30;;;;;;;12.46;41.19;101185.28;5050881;28;20057;-76
2021/10/10 15:01:12;;;;;;;0.20;0.20;;;;;;;12.41;41.27;101175.81;5017801;28;20096;-77
2021/10/10 15:03:38;;;;;;;0.20;0.20;;;;;;;12.21;41.48;101191.88;5030646;28;20500;-77
2021/10/10 15:06:04;;;;;;;0.20;0.20;;;;;;;12.19;41.81;101187.56;5033812;28;20080;-77
2021/10/10 15:08:30;;;;;;;0.20;0.20;;;;;;;12.10;41.46;101185.56;5047441;28;20053;-77
2021/10/10 15:10:56;;;;;;;0.30;0.30;;;;;;;12.04;41.60;101187.81;5000862;28;20055;-78
2021/10/10 15:13:22;;;;;;;0.30;0.30;;;;;;;11.76;42.39;101191.81;5016924;28;20064;-77
2021/10/10 15:15:47;;;;;;;0.20;0.20;;;;;;;11.73;42.02;101180.34;5034610;28;20103;-78
2021/10/10 15:18:13;;;;;;;0.20;0.20;;;;;;;11.63;42.44;101179.34;5036912;28;20068;-77
2021/10/10 15:20:40;;;;;;;0.20;0.20;;;;;;;11.57;42.60;101178.00;5051772;28;20512;-78
2021/10/10 15:23:06;;;;;;;0.20;0.20;;;;;;;11.45;42.87;101177.09;5050330;28;20061;-78
2021/10/10 15:25:32;;;;;;;0.28;0.28;;;;;;;11.32;43.49;101177.19;5016396;28;20572;-78
2021/10/10 15:27:58;;;;;;;0.20;0.20;;;;;;;11.33;43.74;101178.94;5032971;28;20073;-77
2021/10/10 15:30:24;;;;;;;0.20;0.20;;;;;;;11.38;43.44;101180.41;5001222;28;20850;-78
2021/10/10 15:32:50;;;;;;;0.20;0.20;;;;;;;11.29;43.26;101172.00;5050508;28;20092;-78
2021/10/10 15:35:15;;;;;;;0.30;0.30;;;;;;;11.30;43.34;101179.16;5050538;28;20420;-79
2021/10/10 15:37:41;;;;;;;0.20;0.20;;;;;;;11.26;43.22;101172.25;5022480;28;20496;-78
2021/10/10 15:40:08;;;;;;;0.30;0.30;;;;;;;11.23;44.41;101175.19;5017073;28;20064;-78
2021/10/10 15:42:36;;;;;;;0.22;0.22;;;;;;;11.08;44.76;101179.09;5047430;28;20077;-77
2021/10/10 15:45:04;;;;;;;0.30;0.30;;;;;;;11.06;44.50;101181.03;5063115;28;20140;-78
2021/10/10 15:47:30;;;;;;;0.30;0.30;;;;;;;10.93;44.63;101172.09;5066525;28;20091;-77